»·PEaware :: N3777N KSBP-KSMX

N3777N :: KSBP-KSMX

FLIGHT INFORMATION

Flight Status: Arrived
Operator: Privately registered:
United States
More flights under this callsign
Pilot: Keauyon F. (32083)
Aircraft: CESSNA 172 SKYHAWK
(C172)
More flights by this aircraft type
Origin: KSBP San Luis Co Regl
United States
Destination: KSMX Santa Maria Pub/Capt Hancock
United States
More flights between these airports :: More routes between these airports
Route: KSBP DCT KSMX
File this flight plan on PilotEdge
Remarks:
Altitude:
(Current/Filed)
3,500ft
Speed:
(Current/Filed)
120kts
Departed: 19-Oct-20 12:39 PM
Arrived: 19-Oct-20 01:39 PM
Distance/Time
Traveled:
22nm/0:59
Distance/Time
To Go:
Arrived

Flight Plot

Page will automatically refresh every two minutes.

Flight plan parsing failed; only flown route is shown


Map Options




Map Legend


Flown Route
Filed Route
Departure Airport
Arrival Airport
Navaid (VOR, NDB)
Fix

Horizontal Profiles

Position Reports

Time Latitude Longitude Heading Altitude Ground
Speed
19-Oct-20 12:21 0.000408 0.013975 359 3ft 0kts
19-Oct-20 12:22 35.237806 -120.644797 27 182ft 0kts
19-Oct-20 12:23 35.237806 -120.644797 27 183ft 0kts
19-Oct-20 12:24 35.237806 -120.644797 27 183ft 0kts
19-Oct-20 12:25 35.237806 -120.644797 27 183ft 0kts
19-Oct-20 12:26 35.237806 -120.644797 27 183ft 0kts
19-Oct-20 12:27 35.237806 -120.644797 27 183ft 0kts
19-Oct-20 12:28 35.237806 -120.644797 27 183ft 0kts
19-Oct-20 12:29 35.237806 -120.644797 27 183ft 0kts
19-Oct-20 12:30 35.237895 -120.644563 107 183ft 6kts
19-Oct-20 12:31 35.237836 -120.644430 120 184ft 0kts
19-Oct-20 12:32 35.237432 -120.643331 72 187ft 3kts
19-Oct-20 12:33 35.237763 -120.640163 86 193ft 7kts
19-Oct-20 12:34 35.236215 -120.637151 124 202ft 10kts
19-Oct-20 12:35 35.235025 -120.635055 121 210ft 0kts
19-Oct-20 12:36 35.233347 -120.632385 177 219ft 11kts
19-Oct-20 12:37 35.233203 -120.632446 208 219ft 0kts
19-Oct-20 12:38 35.236456 -120.639536 304 203ft 86kts
19-Oct-20 12:39 35.245966 -120.664330 258 982ft 85kts
19-Oct-20 12:40 35.243485 -120.690161 213 1826ft 65kts
19-Oct-20 12:41 35.228429 -120.668297 122 2238ft 95kts
19-Oct-20 12:42 35.208763 -120.643034 126 2831ft 99kts
19-Oct-20 12:43 35.188711 -120.613854 165 3072ft 119kts
19-Oct-20 12:44 35.157671 -120.600125 154 3375ft 119kts
19-Oct-20 12:45 35.126925 -120.583122 154 3479ft 115kts
19-Oct-20 12:46 35.099555 -120.568124 153 3485ft 104kts
19-Oct-20 12:47 35.072535 -120.553315 153 3479ft 111kts
19-Oct-20 12:48 35.043771 -120.537574 154 3479ft 112kts
19-Oct-20 12:49 35.015330 -120.521997 153 3478ft 113kts
19-Oct-20 12:50 34.986824 -120.505992 137 3506ft 108kts
19-Oct-20 12:51 34.974164 -120.472995 116 3531ft 109kts
19-Oct-20 12:52 34.969475 -120.438246 77 3595ft 104kts
19-Oct-20 12:53 34.974124 -120.402935 94 3618ft 104kts
19-Oct-20 12:54 34.964007 -120.367464 133 2332ft 116kts
19-Oct-20 12:55 34.937073 -120.369581 183 2137ft 91kts
19-Oct-20 12:56 34.928476 -120.386371 297 2392ft 62kts
19-Oct-20 12:57 34.943800 -120.383483 314 2823ft 74kts
19-Oct-20 12:58 34.929567 -120.399619 236 2965ft 73kts
19-Oct-20 12:59 34.930299 -120.404552 210 2946ft 100kts
19-Oct-20 13:00 34.926508 -120.431926 202 1195ft 96kts
19-Oct-20 13:01 34.908797 -120.437370 179 533ft 57kts
19-Oct-20 13:02 34.894470 -120.436993 198 409ft 56kts
19-Oct-20 13:03 34.895390 -120.448807 308 263ft 89kts
19-Oct-20 13:04 34.906680 -120.463058 305 397ft 82kts
19-Oct-20 13:05 34.914875 -120.458109 127 898ft 90kts
19-Oct-20 13:06 34.897367 -120.439345 148 827ft 78kts
19-Oct-20 13:07 0.000408 0.013975 0 3ft 0kts
19-Oct-20 13:08 0.000408 0.013975 0 3ft 0kts
19-Oct-20 13:09 0.000408 0.013975 0 3ft 0kts
19-Oct-20 13:10 35.236061 -120.635844 30 182ft 0kts
19-Oct-20 13:11 35.236061 -120.635845 30 206ft 0kts
19-Oct-20 13:12 35.236061 -120.635845 30 206ft 0kts
19-Oct-20 13:13 35.236061 -120.635845 30 206ft 0kts
19-Oct-20 13:14 35.236061 -120.635845 30 206ft 0kts
19-Oct-20 13:15 35.236086 -120.635784 89 206ft 5kts
19-Oct-20 13:16 35.234916 -120.634856 124 211ft 15kts
19-Oct-20 13:17 35.233238 -120.632428 205 219ft 0kts
19-Oct-20 13:18 35.232975 -120.632641 221 218ft 14kts
19-Oct-20 13:20 35.243049 -120.649987 310 447ft 93kts
19-Oct-20 13:21 35.242475 -120.672604 214 1173ft 94kts
19-Oct-20 13:22 35.223143 -120.689459 220 2039ft 82kts
19-Oct-20 13:23 35.203142 -120.702691 188 2760ft 84kts
19-Oct-20 13:24 35.185125 -120.684745 120 3435ft 87kts
19-Oct-20 13:25 35.175638 -120.654682 95 3717ft 99kts
19-Oct-20 13:26 35.168334 -120.617566 111 3626ft 110kts
19-Oct-20 13:27 35.144951 -120.592933 155 3503ft 114kts
19-Oct-20 13:28 35.116303 -120.577153 156 3499ft 111kts
19-Oct-20 13:29 35.088132 -120.561100 155 3500ft 111kts
19-Oct-20 13:30 35.060250 -120.544579 154 3500ft 111kts
19-Oct-20 13:31 35.032560 -120.527429 153 3499ft 111kts
19-Oct-20 13:32 35.005023 -120.510012 153 3499ft 109kts
19-Oct-20 13:33 34.983835 -120.496051 151 3498ft 70kts
19-Oct-20 13:34 34.967936 -120.483131 155 3097ft 95kts
19-Oct-20 13:35 34.938734 -120.470911 158 1809ft 115kts
19-Oct-20 13:35 34.919798 -120.452968 146 1477ft 88kts
19-Oct-20 13:37 34.897668 -120.426516 130 1229ft 89kts
19-Oct-20 13:37 34.884917 -120.435009 275 1068ft 102kts
19-Oct-20 13:39 34.898847 -120.451466 89 246ft 0kts
19-Oct-20 13:40 34.898848 -120.451440 84 246ft 1kts
19-Oct-20 13:40 34.898856 -120.450406 80 247ft 2kts
19-Oct-20 13:42 34.898865 -120.449645 96 248ft 19kts

Navigation Log

Ident Type
Flight plan parsing failed, navigation log unavailable